sensor_id;sensor_type;location;lat;lon;timestamp;pressure;altitude;pressure_sealevel;temperature;humidity
8061;BME280;4073;42.626;25.386;2023-02-19T00:00:01;97304.00;;;7.38;78.88
8061;BME280;4073;42.626;25.386;2023-02-19T00:02:27;97300.00;;;7.35;79.35
8061;BME280;4073;42.626;25.386;2023-02-19T00:04:52;97294.34;;;7.32;79.59
8061;BME280;4073;42.626;25.386;2023-02-19T00:07:18;97286.09;;;7.28;79.87
8061;BME280;4073;42.626;25.386;2023-02-19T00:09:44;97291.16;;;7.30;80.05
8061;BME280;4073;42.626;25.386;2023-02-19T00:12:10;97287.44;;;7.31;79.89
8061;BME280;4073;42.626;25.386;2023-02-19T00:14:35;97287.41;;;7.26;80.29
8061;BME280;4073;42.626;25.386;2023-02-19T00:17:00;97282.81;;;7.21;80.68
8061;BME280;4073;42.626;25.386;2023-02-19T00:19:27;97281.50;;;7.24;80.86
8061;BME280;4073;42.626;25.386;2023-02-19T00:21:53;97276.69;;;7.21;80.83
8061;BME280;4073;42.626;25.386;2023-02-19T00:24:19;97284.16;;;7.24;80.82
8061;BME280;4073;42.626;25.386;2023-02-19T00:26:45;97267.16;;;7.25;81.22
8061;BME280;4073;42.626;25.386;2023-02-19T00:29:16;97265.25;;;7.20;80.79
8061;BME280;4073;42.626;25.386;2023-02-19T00:31:42;97270.00;;;7.18;81.15
8061;BME280;4073;42.626;25.386;2023-02-19T00:34:09;97264.69;;;7.18;81.47
8061;BME280;4073;42.626;25.386;2023-02-19T00:36:36;97272.59;;;7.13;81.53
8061;BME280;4073;42.626;25.386;2023-02-19T00:39:03;97269.31;;;7.28;81.05
8061;BME280;4073;42.626;25.386;2023-02-19T00:41:29;97267.22;;;7.30;80.50
8061;BME280;4073;42.626;25.386;2023-02-19T00:46:24;97280.69;;;7.23;80.87
8061;BME280;4073;42.626;25.386;2023-02-19T00:48:49;97255.41;;;7.21;81.15
8061;BME280;4073;42.626;25.386;2023-02-19T00:51:17;97247.63;;;7.14;81.47
8061;BME280;4073;42.626;25.386;2023-02-19T00:53:43;97252.56;;;7.06;81.30
8061;BME280;4073;42.626;25.386;2023-02-19T00:56:09;97248.50;;;6.98;81.78
8061;BME280;4073;42.626;25.386;2023-02-19T00:58:34;97252.81;;;7.04;81.79
8061;BME280;4073;42.626;25.386;2023-02-19T01:01:00;97247.81;;;7.08;82.04
8061;BME280;4073;42.626;25.386;2023-02-19T01:03:26;97239.28;;;7.06;82.13
8061;BME280;4073;42.626;25.386;2023-02-19T01:05:52;97245.97;;;7.08;82.06
8061;BME280;4073;42.626;25.386;2023-02-19T01:08:18;97219.44;;;6.92;82.29
8061;BME280;4073;42.626;25.386;2023-02-19T01:10:43;97241.88;;;7.01;82.69
8061;BME280;4073;42.626;25.386;2023-02-19T01:13:09;97245.91;;;7.03;83.18
8061;BME280;4073;42.626;25.386;2023-02-19T01:15:35;97237.63;;;7.00;82.94
8061;BME280;4073;42.626;25.386;2023-02-19T01:18:00;97238.66;;;6.99;83.38
8061;BME280;4073;42.626;25.386;2023-02-19T01:20:26;97228.81;;;6.99;83.25
8061;BME280;4073;42.626;25.386;2023-02-19T01:22:52;97222.22;;;7.02;83.62
8061;BME280;4073;42.626;25.386;2023-02-19T01:25:17;97216.09;;;7.01;83.83
8061;BME280;4073;42.626;25.386;2023-02-19T01:27:43;97213.56;;;7.11;83.56
8061;BME280;4073;42.626;25.386;2023-02-19T01:30:09;97201.50;;;7.04;83.08
8061;BME280;4073;42.626;25.386;2023-02-19T01:32:34;97209.00;;;7.07;82.91
8061;BME280;4073;42.626;25.386;2023-02-19T01:35:00;97209.81;;;7.07;83.42
8061;BME280;4073;42.626;25.386;2023-02-19T01:37:26;97209.56;;;7.09;83.29
8061;BME280;4073;42.626;25.386;2023-02-19T01:39:51;97218.44;;;6.98;83.67
8061;BME280;4073;42.626;25.386;2023-02-19T01:42:17;97219.56;;;7.02;83.20
8061;BME280;4073;42.626;25.386;2023-02-19T01:47:12;97221.53;;;7.11;83.24
8061;BME280;4073;42.626;25.386;2023-02-19T01:49:42;97223.94;;;7.13;82.85
8061;BME280;4073;42.626;25.386;2023-02-19T01:52:25;97215.53;;;7.21;82.80
8061;BME280;4073;42.626;25.386;2023-02-19T01:54:52;97212.44;;;7.29;82.54
8061;BME280;4073;42.626;25.386;2023-02-19T01:57:22;97212.94;;;7.26;82.33
8061;BME280;4073;42.626;25.386;2023-02-19T01:59:52;97217.59;;;7.40;81.87
8061;BME280;4073;42.626;25.386;2023-02-19T02:02:20;97203.50;;;7.40;82.11
8061;BME280;4073;42.626;25.386;2023-02-19T02:04:46;97207.97;;;7.34;82.42
8061;BME280;4073;42.626;25.386;2023-02-19T02:07:13;97206.81;;;7.25;82.35
8061;BME280;4073;42.626;25.386;2023-02-19T02:09:57;97203.66;;;7.28;82.35
8061;BME280;4073;42.626;25.386;2023-02-19T02:12:41;97202.59;;;7.29;83.17
8061;BME280;4073;42.626;25.386;2023-02-19T02:15:07;97204.72;;;7.27;83.31
8061;BME280;4073;42.626;25.386;2023-02-19T02:17:56;97184.97;;;7.23;83.34
8061;BME280;4073;42.626;25.386;2023-02-19T02:20:50;97203.41;;;7.30;83.27
8061;BME280;4073;42.626;25.386;2023-02-19T02:29:32;97208.41;;;7.26;83.06
8061;BME280;4073;42.626;25.386;2023-02-19T02:34:14;97211.03;;;7.21;83.41
8061;BME280;4073;42.626;25.386;2023-02-19T02:36:46;97219.13;;;7.10;84.66
8061;BME280;4073;42.626;25.386;2023-02-19T02:39:18;97210.22;;;6.99;85.33
8061;BME280;4073;42.626;25.386;2023-02-19T02:41:49;97215.84;;;7.03;85.76
8061;BME280;4073;42.626;25.386;2023-02-19T02:44:39;97218.28;;;7.04;85.85
8061;BME280;4073;42.626;25.386;2023-02-19T02:47:05;97225.44;;;7.04;85.80
8061;BME280;4073;42.626;25.386;2023-02-19T02:49:33;97211.97;;;7.10;85.90
8061;BME280;4073;42.626;25.386;2023-02-19T02:52:19;97231.19;;;7.17;85.48
8061;BME280;4073;42.626;25.386;2023-02-19T02:55:23;97225.06;;;7.17;85.21
8061;BME280;4073;42.626;25.386;2023-02-19T02:57:50;97237.13;;;7.24;85.10
8061;BME280;4073;42.626;25.386;2023-02-19T03:00:16;97229.38;;;7.23;85.58
8061;BME280;4073;42.626;25.386;2023-02-19T03:02:43;97219.28;;;7.25;85.51
8061;BME280;4073;42.626;25.386;2023-02-19T03:05:10;97234.88;;;7.38;84.68
8061;BME280;4073;42.626;25.386;2023-02-19T03:13:02;97244.97;;;7.36;84.60
8061;BME280;4073;42.626;25.386;2023-02-19T03:15:55;97228.66;;;7.27;84.85
8061;BME280;4073;42.626;25.386;2023-02-19T03:18:42;97232.09;;;7.28;84.94
8061;BME280;4073;42.626;25.386;2023-02-19T03:21:31;97228.13;;;7.30;84.87
8061;BME280;4073;42.626;25.386;2023-02-19T03:23:58;97207.41;;;7.32;84.36
8061;BME280;4073;42.626;25.386;2023-02-19T03:26:44;97218.78;;;7.28;84.54
8061;BME280;4073;42.626;25.386;2023-02-19T03:29:22;97221.44;;;7.28;84.33
8061;BME280;4073;42.626;25.386;2023-02-19T03:31:54;97225.66;;;7.24;84.38
8061;BME280;4073;42.626;25.386;2023-02-19T03:34:29;97241.88;;;7.22;84.15
8061;BME280;4073;42.626;25.386;2023-02-19T03:37:18;97232.09;;;7.06;84.38
8061;BME280;4073;42.626;25.386;2023-02-19T03:39:49;97234.09;;;6.94;85.36
8061;BME280;4073;42.626;25.386;2023-02-19T03:45:45;97225.75;;;6.86;85.98
8061;BME280;4073;42.626;25.386;2023-02-19T03:48:32;97240.09;;;6.85;85.74
8061;BME280;4073;42.626;25.386;2023-02-19T03:54:01;97233.75;;;6.91;86.33
8061;BME280;4073;42.626;25.386;2023-02-19T04:02:07;97229.44;;;7.06;84.79
8061;BME280;4073;42.626;25.386;2023-02-19T04:04:42;97223.25;;;7.22;84.61
8061;BME280;4073;42.626;25.386;2023-02-19T04:07:09;97215.59;;;7.26;83.67
8061;BME280;4073;42.626;25.386;2023-02-19T04:09:38;97227.44;;;7.40;83.37
8061;BME280;4073;42.626;25.386;2023-02-19T04:12:06;97231.25;;;7.49;81.29
8061;BME280;4073;42.626;25.386;2023-02-19T04:14:39;97226.38;;;7.67;80.13
8061;BME280;4073;42.626;25.386;2023-02-19T04:17:13;97222.53;;;7.80;77.98
8061;BME280;4073;42.626;25.386;2023-02-19T04:19:41;97234.88;;;7.91;77.49
8061;BME280;4073;42.626;25.386;2023-02-19T04:22:07;97251.22;;;8.04;75.72
8061;BME280;4073;42.626;25.386;2023-02-19T04:24:40;97235.50;;;8.35;72.98
8061;BME280;4073;42.626;25.386;2023-02-19T04:27:07;97237.25;;;8.56;71.42
8061;BME280;4073;42.626;25.386;2023-02-19T04:29:34;97220.00;;;8.63;70.54
8061;BME280;4073;42.626;25.386;2023-02-19T04:31:59;97233.06;;;8.70;72.03
8061;BME280;4073;42.626;25.386;2023-02-19T04:34:24;97242.13;;;8.69;70.02
8061;BME280;4073;42.626;25.386;2023-02-19T04:36:50;97232.81;;;8.66;69.42
8061;BME280;4073;42.626;25.386;2023-02-19T04:39:16;97250.75;;;8.81;69.26
8061;BME280;4073;42.626;25.386;2023-02-19T04:41:41;97252.59;;;8.80;70.07
8061;BME280;4073;42.626;25.386;2023-02-19T04:44:06;97254.50;;;8.85;68.49
8061;BME280;4073;42.626;25.386;2023-02-19T04:46:32;97251.34;;;8.93;67.50
8061;BME280;4073;42.626;25.386;2023-02-19T04:48:57;97253.78;;;8.99;67.32
8061;BME280;4073;42.626;25.386;2023-02-19T04:51:23;97234.88;;;9.06;66.13
8061;BME280;4073;42.626;25.386;2023-02-19T04:53:48;97242.19;;;9.30;64.91
8061;BME280;4073;42.626;25.386;2023-02-19T04:56:15;97246.81;;;9.75;63.06
8061;BME280;4073;42.626;25.386;2023-02-19T04:58:41;97247.41;;;10.02;61.56
8061;BME280;4073;42.626;25.386;2023-02-19T05:01:08;97243.72;;;10.18;60.78
8061;BME280;4073;42.626;25.386;2023-02-19T05:03:34;97243.97;;;10.26;60.62
8061;BME280;4073;42.626;25.386;2023-02-19T05:06:05;97237.31;;;10.34;61.81
8061;BME280;4073;42.626;25.386;2023-02-19T05:08:31;97235.66;;;10.68;58.92
8061;BME280;4073;42.626;25.386;2023-02-19T05:10:58;97237.25;;;10.79;58.81
8061;BME280;4073;42.626;25.386;2023-02-19T05:13:24;97249.00;;;10.78;58.27
8061;BME280;4073;42.626;25.386;2023-02-19T05:15:54;97256.00;;;10.39;61.13
8061;BME280;4073;42.626;25.386;2023-02-19T05:18:20;97253.59;;;10.17;62.74
8061;BME280;4073;42.626;25.386;2023-02-19T05:20:46;97259.13;;;9.81;63.65
8061;BME280;4073;42.626;25.386;2023-02-19T05:23:11;97257.75;;;9.58;64.57
8061;BME280;4073;42.626;25.386;2023-02-19T05:25:37;97242.69;;;9.27;66.10
8061;BME280;4073;42.626;25.386;2023-02-19T05:28:02;97262.44;;;9.31;66.72
8061;BME280;4073;42.626;25.386;2023-02-19T05:30:48;97271.69;;;9.14;66.11
8061;BME280;4073;42.626;25.386;2023-02-19T05:33:14;97272.81;;;9.18;66.56
8061;BME280;4073;42.626;25.386;2023-02-19T05:35:45;97282.91;;;9.11;66.41
8061;BME280;4073;42.626;25.386;2023-02-19T05:38:11;97295.22;;;9.22;67.50
8061;BME280;4073;42.626;25.386;2023-02-19T05:40:37;97301.31;;;9.12;68.29
8061;BME280;4073;42.626;25.386;2023-02-19T05:43:04;97298.97;;;9.21;68.30
8061;BME280;4073;42.626;25.386;2023-02-19T05:45:30;97291.22;;;9.19;67.83
8061;BME280;4073;42.626;25.386;2023-02-19T05:47:55;97294.16;;;9.23;68.19
8061;BME280;4073;42.626;25.386;2023-02-19T05:50:21;97297.66;;;9.28;68.17
8061;BME280;4073;42.626;25.386;2023-02-19T05:52:46;97304.50;;;9.66;63.18
8061;BME280;4073;42.626;25.386;2023-02-19T05:55:12;97293.88;;;10.01;61.87
8061;BME280;4073;42.626;25.386;2023-02-19T05:57:41;97291.53;;;10.29;60.72
8061;BME280;4073;42.626;25.386;2023-02-19T06:00:08;97311.84;;;10.61;61.24
8061;BME280;4073;42.626;25.386;2023-02-19T06:02:35;97307.31;;;10.61;60.15
8061;BME280;4073;42.626;25.386;2023-02-19T06:05:00;97311.03;;;10.80;59.75
8061;BME280;4073;42.626;25.386;2023-02-19T06:07:26;97333.44;;;11.14;59.45
8061;BME280;4073;42.626;25.386;2023-02-19T06:09:51;97333.94;;;11.36;58.52
8061;BME280;4073;42.626;25.386;2023-02-19T06:12:17;97330.66;;;11.54;57.12
8061;BME280;4073;42.626;25.386;2023-02-19T06:14:42;97344.78;;;11.85;56.45
8061;BME280;4073;42.626;25.386;2023-02-19T06:17:08;97338.19;;;12.11;55.20
8061;BME280;4073;42.626;25.386;2023-02-19T06:19:33;97338.06;;;12.31;54.12
8061;BME280;4073;42.626;25.386;2023-02-19T06:21:59;97336.91;;;12.47;53.26
8061;BME280;4073;42.626;25.386;2023-02-19T06:24:24;97332.47;;;12.66;52.22
8061;BME280;4073;42.626;25.386;2023-02-19T06:26:50;97333.25;;;12.66;52.44
8061;BME280;4073;42.626;25.386;2023-02-19T06:29:16;97330.00;;;12.69;52.19
8061;BME280;4073;42.626;25.386;2023-02-19T06:31:41;97330.19;;;12.83;52.74
8061;BME280;4073;42.626;25.386;2023-02-19T06:34:07;97342.44;;;12.89;52.38
8061;BME280;4073;42.626;25.386;2023-02-19T06:36:32;97331.72;;;12.89;51.89
8061;BME280;4073;42.626;25.386;2023-02-19T06:38:59;97342.34;;;13.04;51.30
8061;BME280;4073;42.626;25.386;2023-02-19T06:41:24;97338.38;;;13.25;50.31
8061;BME280;4073;42.626;25.386;2023-02-19T06:43:50;97337.22;;;13.60;49.33
8061;BME280;4073;42.626;25.386;2023-02-19T06:46:16;97339.19;;;14.15;47.46
8061;BME280;4073;42.626;25.386;2023-02-19T06:48:42;97332.03;;;14.79;45.78
8061;BME280;4073;42.626;25.386;2023-02-19T06:51:13;97338.31;;;15.80;43.69
8061;BME280;4073;42.626;25.386;2023-02-19T06:53:39;97336.13;;;17.10;39.98
8061;BME280;4073;42.626;25.386;2023-02-19T06:56:18;97345.16;;;18.15;37.54
8061;BME280;4073;42.626;25.386;2023-02-19T06:58:45;97334.44;;;19.54;34.74
8061;BME280;4073;42.626;25.386;2023-02-19T07:01:10;97342.72;;;20.95;32.45
8061;BME280;4073;42.626;25.386;2023-02-19T07:03:36;97341.25;;;21.98;30.44
8061;BME280;4073;42.626;25.386;2023-02-19T07:06:01;97335.09;;;22.77;29.30
8061;BME280;4073;42.626;25.386;2023-02-19T07:08:26;97343.97;;;23.88;27.55
8061;BME280;4073;42.626;25.386;2023-02-19T07:10:56;97343.28;;;24.06;27.03
8061;BME280;4073;42.626;25.386;2023-02-19T07:13:23;97332.09;;;24.80;25.98
8061;BME280;4073;42.626;25.386;2023-02-19T07:15:49;97342.81;;;25.27;25.50
8061;BME280;4073;42.626;25.386;2023-02-19T07:18:14;97349.06;;;24.70;25.63
8061;BME280;4073;42.626;25.386;2023-02-19T07:20:40;97346.69;;;25.26;26.33
8061;BME280;4073;42.626;25.386;2023-02-19T07:23:05;97348.19;;;26.07;24.31
8061;BME280;4073;42.626;25.386;2023-02-19T07:25:31;97349.16;;;26.99;23.71
8061;BME280;4073;42.626;25.386;2023-02-19T07:27:56;97349.78;;;26.86;23.58
8061;BME280;4073;42.626;25.386;2023-02-19T07:30:21;97365.75;;;27.39;23.72
8061;BME280;4073;42.626;25.386;2023-02-19T07:32:47;97369.50;;;27.98;22.75
8061;BME280;4073;42.626;25.386;2023-02-19T07:35:12;97373.91;;;28.56;22.69
8061;BME280;4073;42.626;25.386;2023-02-19T07:37:39;97372.91;;;28.31;22.25
8061;BME280;4073;42.626;25.386;2023-02-19T07:40:05;97373.69;;;28.89;21.65
8061;BME280;4073;42.626;25.386;2023-02-19T07:42:31;97367.38;;;29.78;20.95
8061;BME280;4073;42.626;25.386;2023-02-19T07:44:56;97372.09;;;30.86;19.72
8061;BME280;4073;42.626;25.386;2023-02-19T07:47:22;97349.03;;;31.42;19.35
8061;BME280;4073;42.626;25.386;2023-02-19T07:49:48;97370.53;;;29.73;19.92
8061;BME280;4073;42.626;25.386;2023-02-19T07:52:13;97359.94;;;28.89;20.59
8061;BME280;4073;42.626;25.386;2023-02-19T07:54:38;97362.28;;;26.83;22.03
8061;BME280;4073;42.626;25.386;2023-02-19T07:57:04;97369.81;;;25.89;23.61
8061;BME280;4073;42.626;25.386;2023-02-19T07:59:29;97335.28;;;24.82;24.90
8061;BME280;4073;42.626;25.386;2023-02-19T08:01:55;97352.56;;;24.36;25.41
8061;BME280;4073;42.626;25.386;2023-02-19T08:04:39;97341.06;;;24.12;26.03
8061;BME280;4073;42.626;25.386;2023-02-19T08:07:04;97348.94;;;25.40;24.83
8061;BME280;4073;42.626;25.386;2023-02-19T08:09:30;97348.03;;;25.96;24.03
8061;BME280;4073;42.626;25.386;2023-02-19T08:11:56;97350.06;;;26.77;23.38
8061;BME280;4073;42.626;25.386;2023-02-19T08:14:40;97342.34;;;27.53;22.79
8061;BME280;4073;42.626;25.386;2023-02-19T08:17:05;97343.25;;;28.04;22.39
8061;BME280;4073;42.626;25.386;2023-02-19T08:19:30;97351.72;;;26.85;22.70
8061;BME280;4073;42.626;25.386;2023-02-19T08:24:40;97363.13;;;24.88;25.32
8061;BME280;4073;42.626;25.386;2023-02-19T08:27:07;97365.28;;;25.55;24.75
8061;BME280;4073;42.626;25.386;2023-02-19T08:29:32;97358.75;;;25.41;24.39
8061;BME280;4073;42.626;25.386;2023-02-19T08:31:59;97361.50;;;25.86;24.20
8061;BME280;4073;42.626;25.386;2023-02-19T08:34:24;97358.81;;;26.34;24.05
8061;BME280;4073;42.626;25.386;2023-02-19T08:36:49;97351.59;;;26.49;23.40
8061;BME280;4073;42.626;25.386;2023-02-19T08:39:15;97340.09;;;26.40;23.78
8061;BME280;4073;42.626;25.386;2023-02-19T08:41:40;97350.06;;;27.10;23.13
8061;BME280;4073;42.626;25.386;2023-02-19T08:44:06;97344.09;;;26.72;23.41
8061;BME280;4073;42.626;25.386;2023-02-19T08:46:31;97349.19;;;27.32;22.71
8061;BME280;4073;42.626;25.386;2023-02-19T08:48:56;97351.38;;;27.53;22.41
8061;BME280;4073;42.626;25.386;2023-02-19T08:51:22;97350.53;;;27.86;21.98
8061;BME280;4073;42.626;25.386;2023-02-19T08:53:47;97338.31;;;27.80;21.69
8061;BME280;4073;42.626;25.386;2023-02-19T08:56:15;97350.94;;;26.85;22.89
8061;BME280;4073;42.626;25.386;2023-02-19T08:58:41;97353.66;;;26.07;23.54
8061;BME280;4073;42.626;25.386;2023-02-19T09:01:12;97349.13;;;25.95;23.64
8061;BME280;4073;42.626;25.386;2023-02-19T09:03:38;97336.00;;;26.56;23.27
8061;BME280;4073;42.626;25.386;2023-02-19T09:06:03;97340.66;;;27.41;22.84
8061;BME280;4073;42.626;25.386;2023-02-19T09:08:29;97321.75;;;28.16;21.66
8061;BME280;4073;42.626;25.386;2023-02-19T09:10:59;97327.25;;;27.32;22.48
8061;BME280;4073;42.626;25.386;2023-02-19T09:13:24;97335.63;;;28.37;21.72
8061;BME280;4073;42.626;25.386;2023-02-19T09:15:50;97315.84;;;27.74;22.12
8061;BME280;4073;42.626;25.386;2023-02-19T09:18:15;97334.44;;;27.14;22.93
8061;BME280;4073;42.626;25.386;2023-02-19T09:20:40;97329.50;;;27.64;22.27
8061;BME280;4073;42.626;25.386;2023-02-19T09:23:06;97330.44;;;27.41;22.41
8061;BME280;4073;42.626;25.386;2023-02-19T09:25:31;97319.81;;;26.44;23.63
8061;BME280;4073;42.626;25.386;2023-02-19T09:27:57;97318.25;;;25.72;24.11
8061;BME280;4073;42.626;25.386;2023-02-19T09:30:22;97325.91;;;25.86;24.44
8061;BME280;4073;42.626;25.386;2023-02-19T09:32:48;97322.47;;;26.41;23.83
8061;BME280;4073;42.626;25.386;2023-02-19T09:35:13;97325.09;;;26.60;23.36
8061;BME280;4073;42.626;25.386;2023-02-19T09:37:39;97320.00;;;26.58;23.61
8061;BME280;4073;42.626;25.386;2023-02-19T09:40:04;97315.13;;;26.19;23.79
8061;BME280;4073;42.626;25.386;2023-02-19T09:42:31;97318.53;;;25.90;24.15
8061;BME280;4073;42.626;25.386;2023-02-19T09:44:58;97331.44;;;25.44;24.46
8061;BME280;4073;42.626;25.386;2023-02-19T09:47:27;97328.75;;;26.15;24.16
8061;BME280;4073;42.626;25.386;2023-02-19T09:49:58;97315.25;;;26.29;23.93
8061;BME280;4073;42.626;25.386;2023-02-19T09:52:31;97320.72;;;26.55;23.42
8061;BME280;4073;42.626;25.386;2023-02-19T09:55:12;97327.25;;;26.73;23.05
8061;BME280;4073;42.626;25.386;2023-02-19T09:57:39;97315.22;;;26.52;23.38
8061;BME280;4073;42.626;25.386;2023-02-19T10:00:28;97306.09;;;26.18;23.60
8061;BME280;4073;42.626;25.386;2023-02-19T10:03:03;97309.28;;;25.75;24.33
8061;BME280;4073;42.626;25.386;2023-02-19T10:05:30;97307.72;;;26.23;23.91
8061;BME280;4073;42.626;25.386;2023-02-19T10:07:57;97303.06;;;26.53;23.17
8061;BME280;4073;42.626;25.386;2023-02-19T10:10:27;97298.94;;;26.95;23.29
8061;BME280;4073;42.626;25.386;2023-02-19T10:13:08;97305.69;;;25.94;24.31
8061;BME280;4073;42.626;25.386;2023-02-19T10:15:54;97304.31;;;25.81;24.51
8061;BME280;4073;42.626;25.386;2023-02-19T10:18:27;97276.44;;;25.98;24.35
8061;BME280;4073;42.626;25.386;2023-02-19T10:20:54;97279.81;;;25.65;24.73
8061;BME280;4073;42.626;25.386;2023-02-19T10:23:20;97283.00;;;25.48;24.45
8061;BME280;4073;42.626;25.386;2023-02-19T10:25:52;97271.09;;;25.82;24.24
8061;BME280;4073;42.626;25.386;2023-02-19T10:28:32;97259.69;;;25.80;24.45
8061;BME280;4073;42.626;25.386;2023-02-19T10:31:00;97276.28;;;25.23;25.09
8061;BME280;4073;42.626;25.386;2023-02-19T10:33:26;97268.28;;;24.73;25.49
8061;BME280;4073;42.626;25.386;2023-02-19T10:35:56;97270.59;;;24.71;25.48
8061;BME280;4073;42.626;25.386;2023-02-19T10:40:57;97263.06;;;25.48;25.15
8061;BME280;4073;42.626;25.386;2023-02-19T10:43:25;97262.91;;;25.18;24.72
8061;BME280;4073;42.626;25.386;2023-02-19T10:46:00;97257.34;;;24.73;25.49
8061;BME280;4073;42.626;25.386;2023-02-19T10:48:49;97237.19;;;24.43;25.85
8061;BME280;4073;42.626;25.386;2023-02-19T10:51:18;97227.69;;;24.37;26.09
8061;BME280;4073;42.626;25.386;2023-02-19T10:54:03;97242.88;;;24.34;26.13
8061;BME280;4073;42.626;25.386;2023-02-19T10:56:28;97236.31;;;24.39;26.11
8061;BME280;4073;42.626;25.386;2023-02-19T10:59:27;97232.00;;;24.03;25.60
8061;BME280;4073;42.626;25.386;2023-02-19T11:04:20;97228.97;;;24.24;26.11
8061;BME280;4073;42.626;25.386;2023-02-19T11:06:46;97225.28;;;23.82;26.23
8061;BME280;4073;42.626;25.386;2023-02-19T11:11:51;97212.00;;;23.34;27.10
8061;BME280;4073;42.626;25.386;2023-02-19T11:14:19;97204.22;;;22.89;27.95
8061;BME280;4073;42.626;25.386;2023-02-19T11:16:57;97212.41;;;22.34;28.02
8061;BME280;4073;42.626;25.386;2023-02-19T11:19:37;97208.34;;;22.16;28.75
8061;BME280;4073;42.626;25.386;2023-02-19T11:22:29;97209.84;;;22.13;29.18
8061;BME280;4073;42.626;25.386;2023-02-19T11:25:20;97206.44;;;22.16;28.95
8061;BME280;4073;42.626;25.386;2023-02-19T11:28:06;97209.59;;;22.18;28.86
8061;BME280;4073;42.626;25.386;2023-02-19T11:30:36;97199.91;;;22.05;29.11
8061;BME280;4073;42.626;25.386;2023-02-19T11:35:40;97202.81;;;21.73;29.19
8061;BME280;4073;42.626;25.386;2023-02-19T11:38:09;97210.47;;;21.59;29.39
8061;BME280;4073;42.626;25.386;2023-02-19T11:46:19;97212.72;;;21.21;30.84
8061;BME280;4073;42.626;25.386;2023-02-19T11:51:37;97211.59;;;21.10;30.29
8061;BME280;4073;42.626;25.386;2023-02-19T12:05:43;97183.16;;;21.79;29.83
8061;BME280;4073;42.626;25.386;2023-02-19T12:19:14;97177.53;;;22.12;29.59
8061;BME280;4073;42.626;25.386;2023-02-19T12:21:45;97182.38;;;22.18;29.88
8061;BME280;4073;42.626;25.386;2023-02-19T12:35:51;97176.06;;;22.42;29.02
8061;BME280;4073;42.626;25.386;2023-02-19T12:43:29;97154.25;;;22.14;29.24
8061;BME280;4073;42.626;25.386;2023-02-19T12:46:06;97150.84;;;22.17;29.64
8061;BME280;4073;42.626;25.386;2023-02-19T12:51:32;97145.69;;;22.28;29.32
8061;BME280;4073;42.626;25.386;2023-02-19T12:54:09;97143.09;;;22.47;29.56
8061;BME280;4073;42.626;25.386;2023-02-19T13:01:51;97133.19;;;22.82;29.15
8061;BME280;4073;42.626;25.386;2023-02-19T13:04:31;97134.81;;;22.71;29.27
8061;BME280;4073;42.626;25.386;2023-02-19T13:07:07;97130.97;;;22.88;28.67
8061;BME280;4073;42.626;25.386;2023-02-19T13:09:47;97122.50;;;23.08;28.49
8061;BME280;4073;42.626;25.386;2023-02-19T13:14:56;97125.94;;;23.05;27.88
8061;BME280;4073;42.626;25.386;2023-02-19T13:17:37;97114.25;;;22.58;28.28
8061;BME280;4073;42.626;25.386;2023-02-19T13:20:34;97115.72;;;22.71;28.85
8061;BME280;4073;42.626;25.386;2023-02-19T13:26:22;97119.25;;;23.18;28.35
8061;BME280;4073;42.626;25.386;2023-02-19T13:29:08;97117.84;;;23.40;27.76
8061;BME280;4073;42.626;25.386;2023-02-19T13:34:57;97099.59;;;22.94;28.30
8061;BME280;4073;42.626;25.386;2023-02-19T13:37:25;97099.47;;;22.74;28.51
8061;BME280;4073;42.626;25.386;2023-02-19T13:39:53;97101.69;;;22.53;28.74
8061;BME280;4073;42.626;25.386;2023-02-19T13:42:29;97091.56;;;22.26;29.16
8061;BME280;4073;42.626;25.386;2023-02-19T13:44:56;97087.78;;;22.15;28.79
8061;BME280;4073;42.626;25.386;2023-02-19T13:47:57;97087.28;;;21.98;29.56
8061;BME280;4073;42.626;25.386;2023-02-19T13:50:34;97071.78;;;21.86;29.92
8061;BME280;4073;42.626;25.386;2023-02-19T13:53:01;97072.66;;;21.90;30.05
8061;BME280;4073;42.626;25.386;2023-02-19T13:55:48;97078.47;;;21.89;30.04
8061;BME280;4073;42.626;25.386;2023-02-19T13:58:35;97067.38;;;21.82;30.22
8061;BME280;4073;42.626;25.386;2023-02-19T14:01:10;97070.22;;;21.85;30.08
8061;BME280;4073;42.626;25.386;2023-02-19T14:06:05;97050.56;;;21.52;30.92
8061;BME280;4073;42.626;25.386;2023-02-19T14:11:18;97054.84;;;21.65;30.68
8061;BME280;4073;42.626;25.386;2023-02-19T14:14:02;97056.19;;;21.71;30.19
8061;BME280;4073;42.626;25.386;2023-02-19T14:19:17;97059.56;;;21.80;30.32
8061;BME280;4073;42.626;25.386;2023-02-19T14:22:00;97060.78;;;21.83;30.26
8061;BME280;4073;42.626;25.386;2023-02-19T14:24:25;97056.84;;;21.80;30.56
8061;BME280;4073;42.626;25.386;2023-02-19T14:26:51;97056.41;;;21.78;30.48
8061;BME280;4073;42.626;25.386;2023-02-19T14:29:17;97052.44;;;21.76;30.28
8061;BME280;4073;42.626;25.386;2023-02-19T14:31:44;97055.88;;;21.73;30.58
8061;BME280;4073;42.626;25.386;2023-02-19T14:34:20;97053.16;;;21.73;30.67
8061;BME280;4073;42.626;25.386;2023-02-19T14:37:00;97051.50;;;21.84;30.60
8061;BME280;4073;42.626;25.386;2023-02-19T14:39:32;97047.78;;;21.76;30.54
8061;BME280;4073;42.626;25.386;2023-02-19T14:42:16;97039.69;;;21.52;30.71
8061;BME280;4073;42.626;25.386;2023-02-19T14:44:54;97030.13;;;21.19;31.16
8061;BME280;4073;42.626;25.386;2023-02-19T14:47:23;97014.41;;;20.76;31.81
8061;BME280;4073;42.626;25.386;2023-02-19T14:50:00;97024.94;;;20.66;32.44
8061;BME280;4073;42.626;25.386;2023-02-19T14:52:33;97028.75;;;20.53;32.53
8061;BME280;4073;42.626;25.386;2023-02-19T14:55:13;97027.53;;;20.50;33.18
8061;BME280;4073;42.626;25.386;2023-02-19T14:57:44;97022.00;;;20.59;32.96
8061;BME280;4073;42.626;25.386;2023-02-19T15:00:22;97022.19;;;20.54;32.60
8061;BME280;4073;42.626;25.386;2023-02-19T15:02:49;97022.91;;;20.51;33.05
8061;BME280;4073;42.626;25.386;2023-02-19T15:05:17;97019.72;;;20.49;32.99
8061;BME280;4073;42.626;25.386;2023-02-19T15:07:43;97020.97;;;20.51;32.63
8061;BME280;4073;42.626;25.386;2023-02-19T15:10:11;97016.88;;;20.45;32.77
8061;BME280;4073;42.626;25.386;2023-02-19T15:15:16;97026.50;;;20.42;33.11
8061;BME280;4073;42.626;25.386;2023-02-19T15:17:43;97019.25;;;20.34;33.22
8061;BME280;4073;42.626;25.386;2023-02-19T15:20:10;97023.78;;;20.30;33.87
8061;BME280;4073;42.626;25.386;2023-02-19T15:22:39;97012.72;;;20.03;33.77
8061;BME280;4073;42.626;25.386;2023-02-19T15:25:06;97023.09;;;20.01;34.38
8061;BME280;4073;42.626;25.386;2023-02-19T15:27:31;97013.94;;;19.93;34.76